Time;durP1;ratioP1;P1;durP2;ratioP2;P2;SDS_P1;SDS_P2;PMS_P1;PMS_P2;Temp;Humidity;BMP_temperature;BMP_pressure;BME280_temperature;BME280_humidity;BME280_pressure;Samples;Min_cycle;Max_cycle;Signal;HPM_P1;HPM_P2
2022/05/14 00:01:50;;;;;;;5.97;4.78;;;23.60;63.10;;;;;;5014245;28;20030;-77
2022/05/14 00:04:16;;;;;;;8.48;5.13;;;23.90;62.60;;;;;;4996444;28;20117;-84
2022/05/14 00:06:42;;;;;;;8.07;5.30;;;23.90;62.10;;;;;;5014820;28;20029;-76
2022/05/14 00:09:08;;;;;;;6.93;5.50;;;23.40;63.30;;;;;;4996349;28;20054;-79
2022/05/14 00:14:20;;;;;;;8.45;5.20;;;23.20;63.80;;;;;;5016195;28;20125;-84
2022/05/14 00:16:46;;;;;;;6.43;5.05;;;23.40;63.80;;;;;;4997514;28;20030;-79
2022/05/14 00:19:12;;;;;;;6.70;5.10;;;23.50;63.30;;;;;;4996794;28;20022;-84
2022/05/14 00:21:37;;;;;;;7.40;5.13;;;23.50;63.30;;;;;;4996358;28;20528;-81
2022/05/14 00:24:06;;;;;;;9.43;5.15;;;23.30;63.80;;;;;;5013873;28;20080;-79
2022/05/14 00:26:32;;;;;;;6.97;5.40;;;23.40;63.50;;;;;;4996410;28;20034;-85
2022/05/14 00:28:59;;;;;;;8.60;5.53;;;23.40;63.70;;;;;;4997714;28;20029;-79
2022/05/14 00:31:25;;;;;;;7.00;5.90;;;23.30;64.00;;;;;;5013760;28;20101;-81
2022/05/14 00:33:51;;;;;;;8.02;5.50;;;23.60;63.40;;;;;;4996595;28;20543;-85
2022/05/14 00:36:16;;;;;;;7.95;5.75;;;24.00;62.50;;;;;;4995795;28;20026;-78
2022/05/14 00:38:43;;;;;;;7.85;5.93;;;24.40;61.60;;;;;;4996081;28;20022;-81
2022/05/14 00:41:10;;;;;;;8.05;5.55;;;24.70;60.90;;;;;;5013790;28;20040;-88
2022/05/14 00:43:51;;;;;;;7.22;5.80;;;24.70;60.50;;;;;;4996742;28;20022;-78
2022/05/14 00:46:25;;;;;;;8.40;5.07;;;24.50;61.30;;;;;;5014036;28;20093;-79
2022/05/14 00:48:54;;;;;;;7.78;5.38;;;24.60;60.80;;;;;;5014123;28;20528;-83
2022/05/14 00:51:29;;;;;;;6.85;5.57;;;24.90;60.70;;;;;;4996437;28;20452;-83
2022/05/14 00:54:03;;;;;;;9.07;6.03;;;25.00;60.00;;;;;;5013469;28;20026;-84
2022/05/14 00:56:34;;;;;;;7.38;6.03;;;24.90;60.10;;;;;;4995859;28;20404;-85
2022/05/14 00:59:06;;;;;;;8.13;5.82;;;24.90;60.30;;;;;;4996403;28;20432;-81
2022/05/14 01:01:33;;;;;;;8.50;6.00;;;25.10;59.90;;;;;;5013779;28;20026;-81
2022/05/14 01:03:59;;;;;;;8.88;6.28;;;25.10;59.80;;;;;;4996365;28;20121;-84
2022/05/14 01:06:28;;;;;;;8.95;6.13;;;24.80;60.40;;;;;;4996227;28;20026;-87
2022/05/14 01:08:54;;;;;;;7.18;5.78;;;24.70;60.30;;;;;;4996032;28;20050;-83
2022/05/14 01:11:21;;;;;;;8.27;6.13;;;24.50;60.80;;;;;;5013515;28;20427;-80
2022/05/14 01:13:46;;;;;;;9.50;6.18;;;24.60;60.40;;;;;;4995930;28;20552;-80
2022/05/14 01:16:12;;;;;;;9.43;6.10;;;24.60;60.30;;;;;;4995863;28;20026;-80
2022/05/14 01:18:38;;;;;;;7.97;6.20;;;24.40;60.60;;;;;;5013047;28;20045;-80
2022/05/14 01:21:31;;;;;;;9.75;6.20;;;23.90;61.90;;;;;;4995702;28;20030;-78
2022/05/14 01:27:11;;;;;;;7.53;5.82;;;23.80;62.50;;;;;;5017576;28;20096;-82
2022/05/14 01:29:39;;;;;;;8.57;6.15;;;24.10;62.20;;;;;;5017845;28;20030;-83
2022/05/14 01:32:05;;;;;;;7.88;6.22;;;24.40;61.10;;;;;;4983680;28;20030;-81
2022/05/14 01:34:33;;;;;;;9.65;6.50;;;24.40;61.40;;;;;;5016569;28;20029;-83
2022/05/14 01:37:00;;;;;;;9.52;6.55;;;24.50;61.20;;;;;;5017220;28;20540;-82
2022/05/14 01:39:26;;;;;;;7.80;6.10;;;24.70;60.60;;;;;;5001221;28;20033;-79
2022/05/14 01:41:52;;;;;;;8.60;6.97;;;25.00;60.10;;;;;;5016806;28;20026;-79
2022/05/14 01:44:19;;;;;;;10.05;6.85;;;25.10;60.00;;;;;;5016217;28;20030;-79
2022/05/14 01:46:44;;;;;;;7.97;6.80;;;25.20;59.80;;;;;;4999572;28;20416;-80
2022/05/14 01:49:10;;;;;;;12.73;8.02;;;25.10;59.60;;;;;;5000015;28;20125;-80
2022/05/14 01:51:36;;;;;;;8.05;6.78;;;25.10;59.70;;;;;;5016119;28;20050;-81
2022/05/14 01:54:02;;;;;;;8.45;6.55;;;24.80;60.10;;;;;;5017922;28;20022;-77
2022/05/14 01:56:28;;;;;;;7.75;6.68;;;24.30;61.30;;;;;;5015689;28;20104;-80
2022/05/14 01:58:54;;;;;;;8.55;6.70;;;24.30;61.30;;;;;;4998514;28;20432;-79
2022/05/14 02:01:33;;;;;;;7.57;6.78;;;24.30;61.10;;;;;;4998838;28;20033;-86
2022/05/14 02:04:08;;;;;;;9.15;6.60;;;24.30;61.40;;;;;;5016134;28;20022;-81
2022/05/14 02:06:34;;;;;;;10.18;7.18;;;24.30;61.30;;;;;;5017075;28;20030;-79
2022/05/14 02:09:01;;;;;;;9.77;7.13;;;24.40;61.10;;;;;;5016404;28;20041;-80
2022/05/14 02:11:28;;;;;;;9.75;6.78;;;24.50;60.90;;;;;;5016114;28;20045;-79
2022/05/14 02:13:55;;;;;;;9.15;7.10;;;24.70;60.40;;;;;;5016097;28;20065;-79
2022/05/14 02:16:20;;;;;;;8.35;6.80;;;24.60;60.70;;;;;;5016579;28;20040;-76
2022/05/14 02:18:47;;;;;;;9.07;7.18;;;24.70;60.60;;;;;;4998475;28;20053;-84
2022/05/14 02:21:14;;;;;;;9.38;6.93;;;24.60;60.50;;;;;;5016115;28;20036;-79
2022/05/14 02:23:40;;;;;;;10.27;6.95;;;24.60;60.70;;;;;;4998637;28;20480;-81
2022/05/14 02:26:09;;;;;;;8.20;7.20;;;24.30;61.40;;;;;;5016046;28;20029;-84
2022/05/14 02:28:35;;;;;;;12.45;7.20;;;24.20;61.50;;;;;;5016149;28;20026;-83
2022/05/14 02:31:01;;;;;;;9.15;7.60;;;24.00;61.90;;;;;;4998520;28;20031;-80
2022/05/14 02:33:26;;;;;;;9.30;7.20;;;24.10;61.90;;;;;;4998402;28;20033;-79
2022/05/14 02:35:52;;;;;;;9.57;7.38;;;24.00;61.80;;;;;;5014908;28;20029;-87
2022/05/14 02:38:18;;;;;;;11.68;7.30;;;24.10;61.90;;;;;;5015980;28;20026;-83
2022/05/14 02:40:44;;;;;;;8.75;6.63;;;24.00;61.80;;;;;;5015449;28;20033;-79
2022/05/14 02:43:10;;;;;;;10.20;7.80;;;24.00;61.90;;;;;;5014740;28;20052;-78
2022/05/14 02:45:36;;;;;;;9.13;7.38;;;24.10;61.60;;;;;;5015277;28;20465;-78
2022/05/14 02:48:03;;;;;;;11.35;8.00;;;24.10;61.40;;;;;;5015465;28;20026;-79
2022/05/14 02:50:29;;;;;;;9.93;7.13;;;24.30;61.20;;;;;;4997562;28;20073;-85
2022/05/14 02:52:55;;;;;;;10.98;7.47;;;24.30;61.40;;;;;;4997743;28;20073;-78
2022/05/14 02:55:21;;;;;;;9.18;7.55;;;24.30;61.30;;;;;;4997719;28;20504;-76
2022/05/14 02:57:47;;;;;;;10.38;7.28;;;24.10;61.50;;;;;;5015298;28;20038;-77
2022/05/14 03:00:16;;;;;;;10.65;7.45;;;24.20;61.30;;;;;;5014722;28;20021;-79
2022/05/14 03:02:43;;;;;;;9.93;7.45;;;24.30;61.20;;;;;;5015580;28;20475;-81
2022/05/14 03:05:10;;;;;;;9.45;7.70;;;24.30;61.00;;;;;;5015186;28;20056;-78
2022/05/14 03:07:36;;;;;;;8.82;7.28;;;24.10;61.10;;;;;;5015135;28;20021;-78
2022/05/14 03:10:03;;;;;;;10.38;7.35;;;24.10;61.20;;;;;;5015103;28;20022;-88
2022/05/14 03:12:28;;;;;;;9.85;6.95;;;24.20;61.00;;;;;;4998309;28;20457;-79
2022/05/14 03:14:54;;;;;;;8.65;7.25;;;24.10;61.10;;;;;;5014787;28;20547;-79
2022/05/14 03:17:21;;;;;;;9.52;7.00;;;24.20;61.00;;;;;;5015664;28;20037;-80
2022/05/14 03:19:47;;;;;;;9.95;7.53;;;24.20;60.60;;;;;;4996997;28;20168;-78
2022/05/14 03:22:14;;;;;;;8.02;7.07;;;24.20;60.80;;;;;;5014752;28;20026;-78
2022/05/14 03:24:40;;;;;;;8.80;7.30;;;24.10;60.80;;;;;;5015005;28;20052;-79
2022/05/14 03:27:07;;;;;;;11.20;6.70;;;24.10;61.00;;;;;;5014399;28;20029;-79
2022/05/14 03:29:34;;;;;;;9.50;6.93;;;24.10;60.80;;;;;;5015139;28;20042;-84
2022/05/14 03:32:00;;;;;;;11.07;7.00;;;23.90;60.80;;;;;;5014254;28;20428;-79
2022/05/14 03:34:26;;;;;;;10.23;7.43;;;23.80;60.90;;;;;;4996360;28;20029;-78
2022/05/14 03:36:52;;;;;;;12.30;8.30;;;23.80;61.20;;;;;;5014504;28;20034;-80
2022/05/14 03:39:18;;;;;;;10.02;8.50;;;23.80;61.30;;;;;;5014985;28;20026;-80
2022/05/14 03:41:45;;;;;;;11.10;7.75;;;23.50;61.90;;;;;;4996823;28;20026;-84
2022/05/14 03:44:11;;;;;;;10.73;7.68;;;23.40;62.10;;;;;;4997224;28;20120;-78
2022/05/14 03:46:37;;;;;;;10.60;7.53;;;23.30;62.70;;;;;;4996415;28;20029;-79
2022/05/14 03:49:06;;;;;;;10.00;7.40;;;23.10;63.10;;;;;;4996635;28;20040;-78
2022/05/14 03:51:32;;;;;;;9.43;7.28;;;23.20;62.70;;;;;;5013334;28;20068;-78
2022/05/14 03:53:58;;;;;;;11.00;7.28;;;23.30;62.80;;;;;;4996086;28;20381;-79
2022/05/14 03:56:24;;;;;;;9.10;7.22;;;23.30;62.50;;;;;;4995861;28;20064;-79
2022/05/14 03:58:50;;;;;;;11.93;7.72;;;23.30;62.80;;;;;;5014109;28;20037;-78
2022/05/14 04:01:17;;;;;;;9.82;7.90;;;23.40;62.40;;;;;;5013909;28;20100;-81
2022/05/14 04:03:43;;;;;;;8.63;7.38;;;23.50;62.40;;;;;;5014164;28;20018;-79
2022/05/14 04:06:09;;;;;;;8.65;6.53;;;23.70;62.10;;;;;;5012550;28;20026;-78
2022/05/14 04:08:35;;;;;;;7.82;6.55;;;23.80;61.20;;;;;;5014245;28;20064;-81
2022/05/14 04:11:01;;;;;;;10.93;6.85;;;23.90;60.90;;;;;;4996224;28;20113;-76
2022/05/14 04:13:27;;;;;;;9.52;6.43;;;23.80;60.90;;;;;;5014160;28;20021;-78
2022/05/14 04:15:52;;;;;;;9.68;6.43;;;23.90;60.80;;;;;;5013970;28;20026;-84
2022/05/14 04:18:24;;;;;;;8.50;5.85;;;23.90;60.20;;;;;;5013751;28;20073;-79
2022/05/14 04:20:55;;;;;;;7.47;5.82;;;23.90;59.90;;;;;;5013910;28;20018;-88
2022/05/14 04:23:21;;;;;;;7.05;5.40;;;24.10;59.60;;;;;;4996439;28;20117;-79
2022/05/14 04:25:51;;;;;;;7.60;4.90;;;24.30;58.80;;;;;;5014132;28;20018;-79
2022/05/14 04:28:18;;;;;;;8.20;4.70;;;24.30;58.10;;;;;;4996313;28;20084;-78
2022/05/14 04:30:46;;;;;;;9.02;5.25;;;24.20;57.80;;;;;;5014312;28;20384;-85
2022/05/14 04:33:13;;;;;;;8.82;5.50;;;24.30;57.60;;;;;;5013777;28;20105;-80
2022/05/14 04:35:38;;;;;;;8.18;5.10;;;24.40;57.70;;;;;;5013471;28;20037;-82
2022/05/14 04:38:04;;;;;;;7.22;4.88;;;24.50;57.40;;;;;;5013758;28;20030;-78
2022/05/14 04:40:30;;;;;;;8.23;4.93;;;24.50;57.50;;;;;;4996272;28;20053;-79
2022/05/14 04:42:56;;;;;;;7.93;5.18;;;24.60;57.70;;;;;;5013713;28;20057;-81
2022/05/14 04:45:22;;;;;;;6.25;4.80;;;24.70;57.60;;;;;;4995511;28;20029;-77
2022/05/14 04:47:48;;;;;;;8.63;4.90;;;24.80;57.30;;;;;;4995969;28;20393;-79
2022/05/14 04:50:14;;;;;;;8.18;4.75;;;24.70;57.40;;;;;;5013229;28;20512;-79
2022/05/14 04:52:40;;;;;;;7.97;4.72;;;24.60;57.30;;;;;;4996512;28;20064;-80
2022/05/14 04:55:13;;;;;;;6.74;4.92;;;24.40;56.90;;;;;;4527881;28;10002770;-86
2022/05/14 04:57:43;;;;;;;11.55;4.60;;;24.50;56.60;;;;;;5031504;28;20132;-82
2022/05/14 05:00:10;;;;;;;6.50;4.93;;;24.40;57.10;;;;;;5022092;28;20026;-82
2022/05/14 05:05:20;;;;;;;7.97;4.97;;;24.40;56.30;;;;;;5040214;28;20036;-79
2022/05/14 05:07:47;;;;;;;8.25;4.78;;;24.30;56.70;;;;;;5022246;28;20098;-88
2022/05/14 05:10:13;;;;;;;9.55;4.50;;;24.40;56.30;;;;;;5022377;28;20112;-78
2022/05/14 05:12:39;;;;;;;7.40;4.10;;;24.70;55.50;;;;;;5022505;28;20388;-81
2022/05/14 05:15:05;;;;;;;9.95;4.70;;;24.70;56.00;;;;;;5039713;28;20030;-86
2022/05/14 05:17:31;;;;;;;7.68;4.32;;;24.70;55.70;;;;;;5039940;28;20065;-88
2022/05/14 05:19:56;;;;;;;7.65;4.78;;;24.70;55.70;;;;;;5039155;28;20171;-79
2022/05/14 05:22:22;;;;;;;6.65;4.93;;;24.40;57.10;;;;;;5022730;28;20029;-78
2022/05/14 05:24:48;;;;;;;7.10;4.88;;;24.50;57.70;;;;;;5021554;28;20022;-87
2022/05/14 05:27:13;;;;;;;7.35;5.43;;;24.70;57.50;;;;;;5020914;28;20646;-80
2022/05/14 05:29:39;;;;;;;8.85;5.20;;;24.70;57.60;;;;;;5039634;28;20034;-79
2022/05/14 05:32:05;;;;;;;8.98;5.40;;;24.60;57.60;;;;;;5039128;28;20033;-76
2022/05/14 05:34:31;;;;;;;6.63;5.10;;;24.40;57.80;;;;;;5021590;28;20032;-83
2022/05/14 05:36:56;;;;;;;6.65;4.70;;;24.20;58.50;;;;;;5038781;28;20033;-78
2022/05/14 05:39:22;;;;;;;6.07;5.00;;;24.10;58.50;;;;;;5021833;28;20480;-82
2022/05/14 05:41:48;;;;;;;10.63;5.60;;;23.80;59.00;;;;;;5021411;28;20112;-82
2022/05/14 05:44:13;;;;;;;7.35;5.13;;;24.10;59.10;;;;;;5021339;28;20392;-83
2022/05/14 05:46:39;;;;;;;7.35;5.40;;;24.30;58.90;;;;;;5039443;28;20084;-80
2022/05/14 05:49:05;;;;;;;8.10;5.60;;;24.50;58.60;;;;;;5021028;28;20387;-83
2022/05/14 05:51:31;;;;;;;7.72;5.60;;;24.60;58.50;;;;;;5039024;28;20135;-76
2022/05/14 05:57:15;;;;;;;7.47;5.07;;;25.00;57.50;;;;;;5039031;28;20056;-83
2022/05/14 05:59:34;;;;;;;10.45;4.95;;;24.80;57.50;;;;;;5038683;28;20045;-80
2022/05/14 06:02:00;;;;;;;11.88;5.50;;;24.30;57.90;;;;;;5039335;28;20376;-81
2022/05/14 06:04:26;;;;;;;7.40;4.80;;;23.90;59.20;;;;;;5021541;28;20108;-81
2022/05/14 06:06:53;;;;;;;8.23;4.25;;;24.40;59.00;;;;;;5039396;28;20036;-82
2022/05/14 06:09:24;;;;;;;9.90;4.47;;;24.60;58.20;;;;;;5038333;28;20033;-79
2022/05/14 06:11:50;;;;;;;9.45;4.70;;;24.70;58.10;;;;;;5035513;28;20381;-79
2022/05/14 06:14:17;;;;;;;7.60;3.90;;;25.00;57.00;;;;;;5036020;28;20483;-77
2022/05/14 06:16:43;;;;;;;7.65;4.38;;;25.40;56.40;;;;;;5018046;28;20037;-81
2022/05/14 06:19:09;;;;;;;7.75;4.22;;;25.60;56.20;;;;;;5035627;28;20415;-85
2022/05/14 06:21:36;;;;;;;6.95;3.90;;;25.50;55.90;;;;;;5036048;28;20026;-82
2022/05/14 06:24:04;;;;;;;5.53;3.80;;;25.30;55.40;;;;;;5017791;28;20021;-81
2022/05/14 06:26:29;;;;;;;7.43;3.78;;;25.20;56.10;;;;;;5018094;28;20025;-83
2022/05/14 06:28:55;;;;;;;8.43;3.63;;;25.30;55.70;;;;;;5036307;28;20448;-80
2022/05/14 06:31:21;;;;;;;5.85;3.15;;;25.30;54.80;;;;;;5036388;28;20014;-83
2022/05/14 06:33:48;;;;;;;7.82;3.67;;;25.30;54.60;;;;;;5035517;28;20456;-83
2022/05/14 06:36:15;;;;;;;5.38;2.88;;;24.70;54.10;;;;;;5035433;28;20384;-78
2022/05/14 06:38:41;;;;;;;7.60;3.50;;;24.50;54.50;;;;;;5017744;28;20141;-82
2022/05/14 06:41:09;;;;;;;7.03;3.05;;;24.50;54.10;;;;;;5035671;28;20072;-80
2022/05/14 06:43:35;;;;;;;5.50;3.03;;;24.70;54.70;;;;;;5019128;28;20040;-85
2022/05/14 06:46:01;;;;;;;5.93;3.40;;;24.80;54.40;;;;;;5035376;28;20017;-80
2022/05/14 06:48:26;;;;;;;7.65;3.25;;;25.00;53.00;;;;;;5017448;28;20033;-82
2022/05/14 06:50:53;;;;;;;5.88;3.45;;;25.20;52.50;;;;;;5017622;28;20045;-82
2022/05/14 06:53:22;;;;;;;9.60;3.40;;;25.10;52.30;;;;;;5017751;28;20028;-83
2022/05/14 06:55:53;;;;;;;4.90;3.40;;;25.20;52.10;;;;;;4684195;28;9999703;-90
2022/05/14 06:58:23;;;;;;;6.10;3.47;;;25.30;52.90;;;;;;4997065;28;20532;-79
2022/05/14 07:00:50;;;;;;;;;;;25.20;51.20;;;;;;5015840;28;20029;-81
2022/05/14 07:08:44;;;;;;;5.63;3.58;;;25.90;51.30;;;;;;5014943;28;20036;-82
2022/05/14 07:11:11;;;;;;;6.60;3.60;;;25.90;51.70;;;;;;4997901;28;20477;-77
2022/05/14 07:13:38;;;;;;;6.88;3.53;;;25.90;51.20;;;;;;5014809;28;20028;-84
2022/05/14 07:16:04;;;;;;;12.45;3.05;;;25.90;52.10;;;;;;4998170;28;20116;-81
2022/05/14 07:18:32;;;;;;;10.82;4.00;;;25.70;51.80;;;;;;4998000;28;20389;-80
2022/05/14 07:20:58;;;;;;;6.57;3.40;;;25.70;52.00;;;;;;4997440;28;20030;-82
2022/05/14 07:23:23;;;;;;;7.53;4.10;;;25.80;51.80;;;;;;5014613;28;20030;-83
2022/05/14 07:25:49;;;;;;;8.07;4.10;;;25.80;51.70;;;;;;5014562;28;20025;-81
2022/05/14 07:28:15;;;;;;;8.68;3.80;;;25.70;51.90;;;;;;5014895;28;20042;-88
2022/05/14 07:30:41;;;;;;;7.68;3.83;;;25.80;51.50;;;;;;5015331;28;20084;-80
2022/05/14 07:33:06;;;;;;;6.22;3.58;;;25.90;51.40;;;;;;5014626;28;20032;-83
2022/05/14 07:35:34;;;;;;;6.13;3.47;;;25.60;51.50;;;;;;5014365;28;20481;-89
2022/05/14 07:38:02;;;;;;;11.05;3.75;;;25.90;52.30;;;;;;4997267;28;20045;-81
2022/05/14 07:40:30;;;;;;;7.35;4.07;;;26.10;50.80;;;;;;5013619;28;20380;-82
2022/05/14 07:43:03;;;;;;;9.60;3.72;;;26.30;51.10;;;;;;5015569;28;20022;-77
2022/05/14 07:45:41;;;;;;;7.38;3.70;;;26.40;51.30;;;;;;4996984;28;20034;-82
2022/05/14 07:48:11;;;;;;;6.80;3.92;;;26.40;51.80;;;;;;5017040;28;20018;-82
2022/05/14 07:50:37;;;;;;;9.57;3.40;;;26.40;49.30;;;;;;4997021;28;20045;-82
2022/05/14 07:53:03;;;;;;;12.07;3.80;;;26.50;49.40;;;;;;5015278;28;20029;-79
2022/05/14 07:55:29;;;;;;;10.88;3.50;;;26.70;50.10;;;;;;4997450;28;20026;-90
2022/05/14 07:57:54;;;;;;;6.47;3.55;;;26.70;49.50;;;;;;5014707;28;20065;-80
2022/05/14 08:00:20;;;;;;;6.18;3.42;;;26.50;49.00;;;;;;5014408;28;20022;-84
2022/05/14 08:02:46;;;;;;;8.57;3.55;;;26.30;48.20;;;;;;4996613;28;20084;-87
2022/05/14 08:05:14;;;;;;;7.13;3.40;;;26.10;48.80;;;;;;5014334;28;20037;-82
2022/05/14 08:07:40;;;;;;;9.00;3.53;;;26.40;48.30;;;;;;5013744;28;20033;-81
2022/05/14 08:10:08;;;;;;;6.00;3.10;;;26.90;46.70;;;;;;5013976;28;20029;-83
2022/05/14 08:12:41;;;;;;;8.70;3.22;;;27.10;47.90;;;;;;5013857;28;20107;-81
2022/05/14 08:15:09;;;;;;;7.00;3.00;;;27.10;47.40;;;;;;5014166;28;20021;-83
2022/05/14 08:17:35;;;;;;;5.78;2.90;;;26.60;46.10;;;;;;5014022;28;20050;-81
2022/05/14 08:20:01;;;;;;;6.05;2.85;;;26.30;46.10;;;;;;5013643;28;20026;-79
2022/05/14 08:25:11;;;;;;;9.80;2.90;;;26.10;47.00;;;;;;5014079;28;20112;-82
2022/05/14 08:27:44;;;;;;;6.05;2.97;;;26.40;46.10;;;;;;5014064;28;20030;-87
2022/05/14 08:30:16;;;;;;;7.07;2.85;;;26.80;46.20;;;;;;5013583;28;20385;-87
2022/05/14 08:32:42;;;;;;;9.07;3.08;;;26.70;45.10;;;;;;5013756;28;20033;-83
2022/05/14 08:35:08;;;;;;;8.30;3.40;;;27.00;44.60;;;;;;5014191;28;20431;-82
2022/05/14 08:37:34;;;;;;;8.57;2.90;;;27.10;45.60;;;;;;5013907;28;20535;-84
2022/05/14 08:40:09;;;;;;;5.70;3.00;;;27.30;44.50;;;;;;5013755;28;20026;-80
2022/05/14 08:42:36;;;;;;;7.10;2.85;;;27.60;44.90;;;;;;4997084;28;20068;-83
2022/05/14 08:45:02;;;;;;;6.80;2.83;;;27.90;43.90;;;;;;4996001;28;20440;-79
2022/05/14 08:47:31;;;;;;;5.60;2.90;;;27.60;43.30;;;;;;4996145;28;20026;-78
2022/05/14 08:49:57;;;;;;;7.45;2.90;;;27.30;43.20;;;;;;4995873;28;20520;-76
2022/05/14 08:52:25;;;;;;;8.48;2.80;;;27.10;44.70;;;;;;5014024;28;20080;-76
2022/05/14 08:55:01;;;;;;;9.02;2.60;;;27.30;45.10;;;;;;4996084;28;20053;-82
2022/05/14 08:57:53;;;;;;;8.75;2.70;;;27.20;44.10;;;;;;4996216;28;20045;-86
2022/05/14 09:00:19;;;;;;;7.30;3.15;;;27.20;44.70;;;;;;5011836;28;20041;-81
2022/05/14 09:02:48;;;;;;;6.65;2.70;;;27.00;44.40;;;;;;4996254;28;20030;-80
2022/05/14 09:05:31;;;;;;;7.68;2.80;;;27.20;43.50;;;;;;5013943;28;20080;-87
2022/05/14 09:07:57;;;;;;;5.47;2.80;;;27.30;43.80;;;;;;5013617;28;20350;-80
2022/05/14 09:10:38;;;;;;;5.95;2.72;;;27.00;44.30;;;;;;5013299;28;20046;-79
2022/05/14 09:13:13;;;;;;;4.80;2.60;;;27.00;44.60;;;;;;5013263;28;20030;-85
2022/05/14 09:15:48;;;;;;;5.50;2.70;;;27.50;45.10;;;;;;5013192;28;20026;-80
2022/05/14 09:18:21;;;;;;;6.85;2.85;;;27.60;45.00;;;;;;5012936;28;20060;-76
2022/05/14 09:20:57;;;;;;;6.30;2.85;;;27.60;44.40;;;;;;5013444;28;20057;-80
2022/05/14 09:23:44;;;;;;;7.55;2.70;;;27.70;44.80;;;;;;5012923;28;20026;-75
2022/05/14 09:26:25;;;;;;;11.13;2.70;;;27.90;44.30;;;;;;5013424;28;20024;-87
2022/05/14 09:28:56;;;;;;;8.32;2.70;;;27.80;43.30;;;;;;4995187;28;20077;-80
2022/05/14 09:31:32;;;;;;;6.10;2.90;;;27.50;44.10;;;;;;5013086;28;20413;-84
2022/05/14 09:34:15;;;;;;;6.32;2.80;;;27.50;44.60;;;;;;4995121;28;20026;-79
2022/05/14 09:36:42;;;;;;;7.90;2.90;;;27.40;44.40;;;;;;5012810;28;20057;-88
2022/05/14 09:39:17;;;;;;;6.40;2.63;;;27.50;44.70;;;;;;5013098;28;20361;-85
2022/05/14 09:41:46;;;;;;;6.57;3.05;;;28.00;44.90;;;;;;5012651;28;20468;-82
2022/05/14 09:44:21;;;;;;;6.35;2.60;;;28.30;44.50;;;;;;5012530;28;20021;-83
2022/05/14 09:46:47;;;;;;;5.78;2.88;;;28.60;44.50;;;;;;5015751;28;20480;-83
2022/05/14 09:49:25;;;;;;;6.88;2.58;;;28.60;43.80;;;;;;5016412;28;20420;-81
2022/05/14 09:52:02;;;;;;;7.55;2.83;;;28.70;44.90;;;;;;5016405;28;20041;-78
2022/05/14 09:54:45;;;;;;;5.82;2.78;;;29.00;44.00;;;;;;5016603;28;20022;-77
2022/05/14 09:57:35;;;;;;;6.85;2.92;;;29.30;44.20;;;;;;4997071;28;20038;-84
2022/05/14 10:00:10;;;;;;;6.65;2.95;;;28.90;43.80;;;;;;5016514;28;20100;-80
2022/05/14 10:03:00;;;;;;;6.70;2.72;;;28.80;44.30;;;;;;5016855;28;20111;-83
2022/05/14 10:05:29;;;;;;;7.10;2.70;;;28.60;44.60;;;;;;4999271;28;20072;-85
2022/05/14 10:08:22;;;;;;;9.35;3.03;;;28.30;43.70;;;;;;5016774;28;20109;-80
2022/05/14 10:11:03;;;;;;;5.20;2.83;;;27.90;44.40;;;;;;5016336;28;20033;-85
2022/05/14 10:13:53;;;;;;;6.78;2.78;;;27.90;44.90;;;;;;5016430;28;20113;-85
2022/05/14 10:16:22;;;;;;;10.37;2.60;;;28.20;44.20;;;;;;5016300;28;20152;-82
2022/05/14 10:19:06;;;;;;;4.95;2.60;;;28.40;43.50;;;;;;4999110;28;20766;-82
2022/05/14 10:22:10;;;;;;;7.53;3.05;;;28.70;43.50;;;;;;5016457;28;20022;-83
2022/05/14 10:27:46;;;;;;;7.53;2.55;;;28.30;42.70;;;;;;5015936;28;20037;-81
2022/05/14 10:30:17;;;;;;;9.57;2.53;;;28.70;42.90;;;;;;4997898;28;20026;-83
2022/05/14 10:32:50;;;;;;;5.93;2.50;;;29.10;44.00;;;;;;4997950;28;20104;-82
2022/05/14 10:35:47;;;;;;;8.85;2.80;;;29.30;44.70;;;;;;5015827;28;20056;-85
2022/05/14 10:38:28;;;;;;;7.50;2.58;;;29.40;41.60;;;;;;4990794;28;20125;-78
2022/05/14 10:41:00;;;;;;;6.70;2.55;;;29.40;41.30;;;;;;4998242;28;20033;-80
2022/05/14 10:43:59;;;;;;;6.78;2.78;;;29.50;42.20;;;;;;4998104;28;20609;-85
2022/05/14 10:46:28;;;;;;;8.48;2.88;;;29.90;42.10;;;;;;5015703;28;20029;-83
2022/05/14 10:49:09;;;;;;;7.25;2.72;;;29.90;42.30;;;;;;4997748;28;20033;-82
2022/05/14 10:51:42;;;;;;;7.32;2.70;;;29.60;42.70;;;;;;5015320;28;20069;-82
2022/05/14 10:54:21;;;;;;;6.60;2.85;;;29.30;43.00;;;;;;5015572;28;20065;-82
2022/05/14 10:57:04;;;;;;;8.70;2.70;;;29.30;43.00;;;;;;4994880;28;20049;-83
2022/05/14 10:59:35;;;;;;;4.30;2.55;;;29.30;42.90;;;;;;4997985;28;20026;-84
2022/05/14 11:02:02;;;;;;;5.03;2.55;;;29.00;42.40;;;;;;5015778;28;20432;-84
2022/05/14 11:04:36;;;;;;;5.72;3.28;;;28.50;43.10;;;;;;4998617;28;21156;-82
2022/05/14 11:07:06;;;;;;;6.45;2.60;;;28.90;42.90;;;;;;5015446;28;20030;-84
2022/05/14 11:09:40;;;;;;;4.07;2.50;;;29.40;42.60;;;;;;5015444;28;20026;-82
2022/05/14 11:12:18;;;;;;;4.82;2.70;;;29.80;43.50;;;;;;4997811;28;20143;-81
2022/05/14 11:14:47;;;;;;;7.82;2.72;;;29.80;42.10;;;;;;5015193;28;20029;-81
2022/05/14 11:17:31;;;;;;;5.72;2.65;;;29.70;43.40;;;;;;5014750;28;20033;-81
2022/05/14 11:20:03;;;;;;;7.18;2.50;;;29.80;42.00;;;;;;5015156;28;20457;-84
2022/05/14 11:22:31;;;;;;;7.18;2.78;;;29.40;41.80;;;;;;4998169;28;20033;-77
2022/05/14 11:25:07;;;;;;;8.00;3.13;;;28.80;42.30;;;;;;4997563;28;20053;-83
2022/05/14 11:27:35;;;;;;;6.55;2.70;;;28.60;42.90;;;;;;5014976;28;20144;-86
2022/05/14 11:30:09;;;;;;;5.60;2.67;;;28.70;43.70;;;;;;4997398;28;20156;-81
2022/05/14 11:32:52;;;;;;;6.03;2.63;;;29.10;43.30;;;;;;4997532;28;20026;-82
2022/05/14 11:35:19;;;;;;;9.40;2.60;;;28.90;42.20;;;;;;4997352;28;20037;-87
2022/05/14 11:37:46;;;;;;;;;;;29.00;41.80;;;;;;4668022;28;10000014;-84
2022/05/14 11:40:20;;;;;;;5.47;2.40;;;29.00;42.80;;;;;;5011542;28;19952;-81
2022/05/14 11:43:09;;;;;;;5.50;2.50;;;29.00;42.70;;;;;;5032087;28;20048;-79
2022/05/14 11:45:38;;;;;;;4.13;2.30;;;28.90;40.70;;;;;;5014283;28;20056;-82
2022/05/14 11:48:09;;;;;;;4.25;2.20;;;29.10;42.00;;;;;;5013562;28;20059;-83
2022/05/14 11:50:45;;;;;;;8.70;2.40;;;29.00;42.90;;;;;;5013571;28;20041;-88
2022/05/14 11:53:26;;;;;;;4.63;2.47;;;28.90;41.40;;;;;;5014049;28;20052;-91
2022/05/14 11:56:01;;;;;;;5.03;2.30;;;29.10;42.60;;;;;;5014035;28;20549;-76
2022/05/14 11:58:42;;;;;;;6.05;2.40;;;29.30;41.60;;;;;;5032330;28;20077;-78
2022/05/14 12:01:16;;;;;;;6.90;2.63;;;29.20;42.10;;;;;;5032604;28;20026;-81
2022/05/14 12:03:44;;;;;;;5.63;2.33;;;28.90;42.10;;;;;;5031995;28;20017;-80
2022/05/14 12:07:04;;;;;;;5.25;2.47;;;28.80;41.00;;;;;;5031944;28;20029;-81
2022/05/14 12:09:54;;;;;;;5.05;2.40;;;28.50;40.40;;;;;;4969409;28;20043;-88
2022/05/14 12:12:47;;;;;;;6.95;2.60;;;28.60;42.20;;;;;;4963202;28;20732;-78
2022/05/14 12:15:21;;;;;;;6.03;2.25;;;28.40;41.10;;;;;;4971231;28;20045;-80
2022/05/14 12:17:56;;;;;;;6.35;2.65;;;28.70;42.00;;;;;;4955396;28;20047;-80
2022/05/14 12:20:25;;;;;;;8.13;2.72;;;28.40;40.90;;;;;;4972114;28;20034;-79
2022/05/14 12:22:57;;;;;;;10.45;2.72;;;28.60;41.90;;;;;;4970724;28;20158;-79
2022/05/14 12:25:41;;;;;;;6.63;2.80;;;29.00;42.60;;;;;;4970807;28;20042;-77
2022/05/14 12:28:18;;;;;;;6.10;2.50;;;29.40;43.30;;;;;;4970593;28;20050;-83
2022/05/14 12:33:50;;;;;;;5.78;2.78;;;29.50;41.80;;;;;;4971201;28;20042;-86
2022/05/14 12:36:16;;;;;;;6.03;2.60;;;29.50;41.90;;;;;;4955232;28;20371;-84
2022/05/14 12:38:42;;;;;;;5.53;2.60;;;29.00;42.80;;;;;;4970663;28;20058;-85
2022/05/14 12:41:23;;;;;;;6.68;2.88;;;28.90;43.40;;;;;;4970113;28;20383;-77
2022/05/14 12:43:49;;;;;;;7.45;2.88;;;28.90;43.20;;;;;;5002414;28;20517;-79
2022/05/14 12:46:16;;;;;;;7.10;2.60;;;28.90;42.60;;;;;;4994193;28;20065;-76
2022/05/14 12:48:51;;;;;;;7.47;2.55;;;28.90;42.60;;;;;;5017912;28;20050;-81
2022/05/14 12:51:19;;;;;;;7.75;2.63;;;29.40;43.40;;;;;;4994886;28;20057;-76
2022/05/14 12:53:45;;;;;;;4.95;2.45;;;29.60;42.70;;;;;;5005581;28;20033;-80
2022/05/14 12:56:11;;;;;;;7.90;2.80;;;29.30;43.70;;;;;;5019143;28;20033;-83
2022/05/14 12:58:39;;;;;;;5.03;2.40;;;29.30;42.60;;;;;;4999005;28;20062;-83
2022/05/14 13:01:07;;;;;;;6.68;2.65;;;29.00;41.80;;;;;;5021599;28;20470;-83
2022/05/14 13:04:08;;;;;;;5.78;2.47;;;29.20;42.10;;;;;;5001834;28;20053;-78
2022/05/14 13:06:34;;;;;;;;;;;28.80;43.50;;;;;;5007441;28;20028;-81
2022/05/14 13:09:10;;;;;;;10.25;3.03;;;28.70;42.60;;;;;;5005530;28;19916;-81
2022/05/14 13:11:44;;;;;;;6.80;2.60;;;28.60;43.40;;;;;;4994449;28;20030;-79
2022/05/14 13:14:16;;;;;;;6.20;2.63;;;28.80;43.00;;;;;;5003783;28;20021;-77
2022/05/14 13:16:52;;;;;;;5.63;2.33;;;29.00;42.90;;;;;;5004788;28;20041;-80
2022/05/14 13:19:26;;;;;;;5.18;2.85;;;28.90;41.80;;;;;;5000542;28;20054;-81
2022/05/14 13:21:54;;;;;;;10.75;2.55;;;28.90;42.10;;;;;;5018062;28;20029;-80
2022/05/14 13:24:19;;;;;;;8.63;2.50;;;28.90;43.00;;;;;;4999269;28;20026;-90
2022/05/14 13:26:47;;;;;;;7.03;2.30;;;29.10;42.80;;;;;;5017362;28;20029;-83